createdAt,value
2018-09-08T00:02:32.324Z,24.50
2018-09-08T00:05:05.302Z,24.40
2018-09-08T00:07:39.123Z,24.50
2018-09-08T00:10:12.823Z,24.60
2018-09-08T00:12:45.504Z,24.50
2018-09-08T00:15:22.872Z,24.50
2018-09-08T00:18:00.145Z,24.20
2018-09-08T00:20:37.392Z,23.90
2018-09-08T00:23:14.415Z,23.90
2018-09-08T00:25:51.324Z,23.80
2018-09-08T00:28:35.187Z,23.80
2018-09-08T00:31:12.162Z,23.90
2018-09-08T00:33:48.056Z,23.90
2018-09-08T00:36:20.929Z,24.00
2018-09-08T00:38:55.029Z,24.00
2018-09-08T00:41:27.914Z,24.00
2018-09-08T00:44:01.448Z,24.00
2018-09-08T00:46:34.376Z,23.90
2018-09-08T00:49:08.286Z,23.90
2018-09-08T00:51:41.063Z,23.90
2018-09-08T00:54:13.690Z,23.80
2018-09-08T00:56:46.746Z,23.80
2018-09-08T00:59:19.746Z,23.70
2018-09-08T01:01:52.533Z,23.70
2018-09-08T01:04:28.191Z,23.70
2018-09-08T01:07:01.218Z,23.70
2018-09-08T01:09:35.616Z,23.70
2018-09-08T01:12:08.471Z,23.70
2018-09-08T01:14:41.853Z,23.60
2018-09-08T01:17:15.580Z,23.50
2018-09-08T01:19:48.433Z,23.40
2018-09-08T01:22:24.799Z,23.40
2018-09-08T01:24:58.304Z,23.40
2018-09-08T01:27:31.363Z,23.40
2018-09-08T01:30:06.455Z,23.40
2018-09-08T01:32:39.127Z,23.40
2018-09-08T01:35:12.609Z,23.40
2018-09-08T01:37:46.040Z,23.40
2018-09-08T01:40:19.157Z,23.40
2018-09-08T01:42:53.128Z,23.40
2018-09-08T01:45:29.530Z,23.50
2018-09-08T01:48:03.327Z,23.50
2018-09-08T01:50:40.258Z,23.30
2018-09-08T01:53:14.762Z,23.10
2018-09-08T01:55:48.371Z,23.00
2018-09-08T01:58:23.729Z,22.90
2018-09-08T02:00:58.467Z,22.80
2018-09-08T02:03:31.367Z,22.70
2018-09-08T02:06:07.171Z,22.60
2018-09-08T02:11:24.620Z,22.50
2018-09-08T02:14:01.232Z,22.50
2018-09-08T02:16:34.780Z,22.50
2018-09-08T02:19:07.942Z,22.40
2018-09-08T02:21:40.776Z,22.40
2018-09-08T02:24:14.287Z,22.40
2018-09-08T02:26:51.550Z,22.30
2018-09-08T02:29:26.374Z,22.30
2018-09-08T02:31:59.735Z,22.20
2018-09-08T02:34:33.779Z,22.20
2018-09-08T02:37:07.768Z,22.10
2018-09-08T02:39:41.237Z,22.10
2018-09-08T02:42:14.453Z,22.00
2018-09-08T02:44:47.506Z,22.00
2018-09-08T02:47:20.925Z,22.00
2018-09-08T02:50:04.282Z,22.00
2018-09-08T02:52:34.690Z,22.00
2018-09-08T02:55:04.467Z,22.00
2018-09-08T02:57:34.472Z,21.90
2018-09-08T03:00:05.820Z,21.90
2018-09-08T03:02:38.056Z,21.90
2018-09-08T03:05:11.403Z,21.80
2018-09-08T03:07:41.709Z,21.70
2018-09-08T03:10:12.929Z,21.70
2018-09-08T03:12:46.167Z,21.70
2018-09-08T03:15:16.557Z,21.60
2018-09-08T03:17:46.350Z,21.60
2018-09-08T03:20:16.559Z,21.60
2018-09-08T03:25:29.418Z,21.50
2018-09-08T03:27:59.990Z,21.50
2018-09-08T03:30:30.127Z,21.40
2018-09-08T03:33:01.462Z,21.40
2018-09-08T03:35:33.271Z,21.30
2018-09-08T03:38:04.608Z,21.30
2018-09-08T03:40:34.964Z,21.30
2018-09-08T03:45:39.845Z,21.10
2018-09-08T03:48:13.839Z,21.10
2018-09-08T03:50:45.920Z,21.10
2018-09-08T03:53:16.402Z,21.10
2018-09-08T03:55:47.563Z,21.10
2018-09-08T03:58:19.188Z,21.00
2018-09-08T04:00:49.763Z,21.00
2018-09-08T04:03:24.836Z,21.00
2018-09-08T04:05:59.513Z,20.90
2018-09-08T04:08:34.029Z,20.90
2018-09-08T04:13:46.343Z,20.80
2018-09-08T04:16:19.511Z,20.80
2018-09-08T04:18:53.834Z,20.80
2018-09-08T04:21:27.036Z,20.80
2018-09-08T04:24:00.321Z,20.80
2018-09-08T04:26:33.358Z,20.80
2018-09-08T04:29:06.527Z,20.70
2018-09-08T04:31:39.590Z,20.70
2018-09-08T04:34:15.475Z,20.60
2018-09-08T04:36:48.534Z,20.70
2018-09-08T04:39:21.386Z,20.80
2018-09-08T04:41:54.432Z,20.70
2018-09-08T04:44:27.202Z,20.60
2018-09-08T04:47:00.071Z,20.60
2018-09-08T04:49:33.064Z,20.60
2018-09-08T04:52:05.999Z,20.60
2018-09-08T04:54:39.163Z,20.50
2018-09-08T04:57:12.379Z,20.60
2018-09-08T04:59:45.445Z,20.40
2018-09-08T05:02:18.314Z,20.30
2018-09-08T05:04:51.266Z,20.30
2018-09-08T05:07:24.007Z,20.20
2018-09-08T05:09:56.864Z,20.20
2018-09-08T05:12:30.054Z,20.20
2018-09-08T05:15:03.317Z,20.20
2018-09-08T05:17:36.106Z,20.10
2018-09-08T05:20:10.772Z,20.00
2018-09-08T05:22:43.645Z,20.00
2018-09-08T05:25:16.779Z,19.90
2018-09-08T05:27:49.487Z,19.90
2018-09-08T05:30:22.818Z,19.80
2018-09-08T05:32:55.580Z,19.80
2018-09-08T05:35:28.312Z,19.80
2018-09-08T05:38:01.300Z,19.80
2018-09-08T05:40:34.103Z,19.80
2018-09-08T05:43:06.813Z,19.80
2018-09-08T05:45:39.703Z,19.80
2018-09-08T05:48:12.467Z,19.70
2018-09-08T05:50:45.014Z,19.70
2018-09-08T05:53:17.666Z,19.70
2018-09-08T05:55:50.286Z,19.60
2018-09-08T05:58:23.051Z,19.60
2018-09-08T06:00:55.859Z,19.60
2018-09-08T06:03:28.551Z,19.50
2018-09-08T06:06:01.373Z,19.50
2018-09-08T06:08:34.152Z,19.50
2018-09-08T06:11:06.884Z,19.40
2018-09-08T06:13:39.867Z,19.50
2018-09-08T06:16:12.642Z,19.50
2018-09-08T06:18:45.452Z,19.40
2018-09-08T06:21:18.323Z,19.30
2018-09-08T06:23:52.387Z,19.30
2018-09-08T06:26:25.025Z,19.20
2018-09-08T06:28:57.823Z,19.20
2018-09-08T06:31:30.649Z,19.20
2018-09-08T06:34:03.131Z,19.20
2018-09-08T06:36:35.998Z,19.20
2018-09-08T06:39:12.284Z,19.20
2018-09-08T06:41:45.746Z,19.20
2018-09-08T06:44:18.597Z,19.20
2018-09-08T06:46:51.264Z,19.00
2018-09-08T06:49:23.899Z,19.00
2018-09-08T06:51:56.651Z,19.00
2018-09-08T06:54:29.370Z,19.00
2018-09-08T06:57:02.111Z,18.90
2018-09-08T06:59:34.778Z,18.90
2018-09-08T07:02:07.516Z,18.90
2018-09-08T07:04:40.145Z,18.90
2018-09-08T07:07:14.162Z,18.90
2018-09-08T07:09:46.900Z,18.90
2018-09-08T07:12:19.758Z,18.90
2018-09-08T07:14:52.382Z,18.90
2018-09-08T07:17:25.031Z,18.90
2018-09-08T07:19:57.832Z,18.90
2018-09-08T07:22:30.529Z,18.90
2018-09-08T07:25:03.496Z,19.00
2018-09-08T07:27:36.184Z,18.90
2018-09-08T07:30:08.904Z,18.80
2018-09-08T07:32:41.802Z,18.70
2018-09-08T07:35:14.517Z,18.70
2018-09-08T07:37:47.000Z,18.60
2018-09-08T07:40:19.826Z,18.60
2018-09-08T07:42:52.513Z,18.60
2018-09-08T07:45:25.064Z,18.50
2018-09-08T07:47:57.867Z,18.50
2018-09-08T07:50:30.666Z,18.50
2018-09-08T07:53:03.296Z,18.60
2018-09-08T07:55:36.220Z,18.60
2018-09-08T07:58:08.962Z,18.60
2018-09-08T08:00:41.826Z,18.70
2018-09-08T08:03:14.621Z,18.70
2018-09-08T08:05:47.247Z,18.70
2018-09-08T08:08:20.036Z,18.80
2018-09-08T08:10:52.742Z,18.80
2018-09-08T08:13:25.349Z,18.80
2018-09-08T08:15:58.331Z,18.70
2018-09-08T08:18:31.029Z,18.70
2018-09-08T08:21:03.776Z,18.70
2018-09-08T08:23:36.690Z,18.80
2018-09-08T08:26:09.557Z,18.80
2018-09-08T08:28:42.664Z,18.80
2018-09-08T08:31:15.387Z,18.80
2018-09-08T08:33:48.135Z,18.80
2018-09-08T08:36:21.050Z,18.80
2018-09-08T08:38:53.788Z,18.70
2018-09-08T08:41:26.549Z,18.70
2018-09-08T08:43:59.262Z,18.70
2018-09-08T08:46:32.040Z,18.70
2018-09-08T08:49:05.192Z,18.70
2018-09-08T08:51:47.446Z,18.70
2018-09-08T08:54:23.971Z,18.70
2018-09-08T08:56:56.842Z,18.80
2018-09-08T08:59:29.939Z,18.80
2018-09-08T09:02:02.740Z,18.70
2018-09-08T09:04:35.352Z,18.70
2018-09-08T09:07:08.696Z,18.70
2018-09-08T09:09:41.414Z,18.60
2018-09-08T09:12:14.314Z,18.60
2018-09-08T09:14:46.969Z,18.60
2018-09-08T09:17:19.893Z,18.60
2018-09-08T09:20:01.878Z,18.60
2018-09-08T09:22:43.821Z,18.50
2018-09-08T09:25:16.630Z,18.50
2018-09-08T09:27:50.887Z,18.50
2018-09-08T09:30:25.293Z,18.50
2018-09-08T09:32:57.956Z,18.50
2018-09-08T09:35:30.854Z,18.50
2018-09-08T09:38:03.563Z,18.50
2018-09-08T09:40:36.332Z,18.50
2018-09-08T09:43:09.257Z,18.50
2018-09-08T09:45:42.017Z,18.50
2018-09-08T09:48:14.837Z,18.50
2018-09-08T09:50:47.736Z,18.50
2018-09-08T09:53:20.526Z,18.50
2018-09-08T09:55:53.142Z,18.50
2018-09-08T09:58:26.034Z,18.50
2018-09-08T10:01:03.098Z,18.50
2018-09-08T10:03:35.871Z,18.50
2018-09-08T10:06:08.487Z,18.50
2018-09-08T10:08:41.446Z,18.40
2018-09-08T10:11:14.178Z,18.50
2018-09-08T10:13:47.237Z,18.40
2018-09-08T10:16:19.950Z,18.30
2018-09-08T10:18:53.303Z,18.20
2018-09-08T10:21:25.839Z,18.30
2018-09-08T10:24:05.152Z,18.30
2018-09-08T10:26:31.483Z,18.40
2018-09-08T10:29:04.294Z,18.40
2018-09-08T10:31:37.818Z,18.40
2018-09-08T10:34:10.827Z,18.40
2018-09-08T10:36:43.501Z,18.40
2018-09-08T10:39:16.248Z,18.40
2018-09-08T10:41:48.977Z,18.40
2018-09-08T10:44:21.899Z,18.40
2018-09-08T10:46:54.694Z,18.40
2018-09-08T10:49:29.252Z,18.40
2018-09-08T10:53:08.227Z,18.40
2018-09-08T10:55:42.442Z,18.30
2018-09-08T10:58:16.194Z,18.50
2018-09-08T11:00:53.264Z,18.50
2018-09-08T11:03:26.936Z,18.60
2018-09-08T11:06:00.866Z,18.60
2018-09-08T11:08:35.209Z,18.60
2018-09-08T11:11:09.199Z,18.50
2018-09-08T11:13:42.837Z,18.50
2018-09-08T11:16:16.269Z,18.50
2018-09-08T11:18:50.254Z,18.50
2018-09-08T11:21:24.165Z,18.50
2018-09-08T11:23:58.400Z,18.50
2018-09-08T11:26:32.487Z,18.40
2018-09-08T11:29:05.715Z,18.40
2018-09-08T11:31:38.527Z,18.40
2018-09-08T11:34:12.638Z,18.40
2018-09-08T11:36:45.483Z,18.30
2018-09-08T11:39:18.341Z,18.40
2018-09-08T11:41:51.947Z,18.30
2018-09-08T11:44:24.719Z,18.40
2018-09-08T11:46:57.469Z,18.40
2018-09-08T11:49:30.290Z,18.40
2018-09-08T11:52:02.946Z,18.40
2018-09-08T11:54:35.725Z,18.40
2018-09-08T11:57:08.384Z,18.50
2018-09-08T11:59:40.975Z,18.50
2018-09-08T12:02:14.056Z,18.40
2018-09-08T12:04:51.015Z,18.50
2018-09-08T12:07:31.557Z,18.50
2018-09-08T12:10:04.495Z,18.50
2018-09-08T12:12:37.842Z,18.60
2018-09-08T12:15:11.001Z,18.60
2018-09-08T12:17:43.922Z,18.60
2018-09-08T12:20:16.781Z,18.60
2018-09-08T12:22:56.399Z,18.60
2018-09-08T12:25:36.714Z,18.70
2018-09-08T12:28:14.696Z,18.60
2018-09-08T12:30:49.876Z,18.70
2018-09-08T12:33:25.670Z,18.70
2018-09-08T12:35:58.578Z,18.80
2018-09-08T12:38:31.683Z,18.80
2018-09-08T12:41:04.514Z,18.80
2018-09-08T12:43:37.692Z,19.00
2018-09-08T12:46:18.437Z,19.00
2018-09-08T12:48:51.069Z,19.10
2018-09-08T12:51:24.939Z,19.10
2018-09-08T12:53:57.868Z,19.10
2018-09-08T12:56:37.599Z,19.20
2018-09-08T12:59:11.971Z,19.30
2018-09-08T13:01:54.730Z,19.30
2018-09-08T13:04:37.653Z,19.40
2018-09-08T13:07:22.132Z,19.40
2018-09-08T13:10:00.515Z,19.50
2018-09-08T13:12:34.524Z,19.50
2018-09-08T13:15:19.197Z,19.60
2018-09-08T13:18:03.036Z,19.60
2018-09-08T13:20:47.726Z,19.70
2018-09-08T13:23:20.491Z,19.80
2018-09-08T13:25:55.545Z,19.70
2018-09-08T13:28:28.383Z,19.60
2018-09-08T13:31:01.132Z,19.60
2018-09-08T13:33:34.020Z,19.70
2018-09-08T13:36:06.820Z,19.70
2018-09-08T13:38:39.757Z,19.70
2018-09-08T13:41:16.371Z,19.70
2018-09-08T13:43:49.082Z,19.80
2018-09-08T13:46:21.839Z,19.90
2018-09-08T13:48:54.746Z,19.90
2018-09-08T13:51:27.657Z,20.00
2018-09-08T13:54:00.546Z,20.10
2018-09-08T13:56:33.522Z,20.20
2018-09-08T13:59:06.246Z,20.40
2018-09-08T14:01:38.868Z,20.60
2018-09-08T14:04:11.710Z,20.70
2018-09-08T14:06:44.374Z,20.90
2018-09-08T14:09:16.965Z,21.00
2018-09-08T14:11:49.792Z,21.10
2018-09-08T14:14:23.311Z,21.30
2018-09-08T14:16:56.026Z,21.50
2018-09-08T14:19:28.716Z,21.50
2018-09-08T14:22:02.429Z,21.40
2018-09-08T14:24:35.343Z,21.40
2018-09-08T14:27:10.123Z,21.50
2018-09-08T14:29:42.841Z,21.60
2018-09-08T14:32:15.603Z,21.70
2018-09-08T14:34:48.429Z,21.70
2018-09-08T14:37:22.263Z,21.80
2018-09-08T14:40:07.045Z,21.90
2018-09-08T14:42:41.138Z,22.10
2018-09-08T14:45:18.873Z,22.20
2018-09-08T14:47:55.694Z,22.30
2018-09-08T14:50:34.897Z,22.50
2018-09-08T14:53:11.343Z,22.50
2018-09-08T14:55:49.905Z,22.60
2018-09-08T14:58:25.204Z,22.60
2018-09-08T15:01:01.975Z,22.70
2018-09-08T15:03:34.932Z,22.70
2018-09-08T15:06:08.743Z,22.70
2018-09-08T15:08:41.672Z,22.80
2018-09-08T15:11:14.481Z,23.10
2018-09-08T15:13:47.255Z,23.20
2018-09-08T15:16:20.164Z,23.20
2018-09-08T15:18:52.945Z,23.30
2018-09-08T15:21:25.559Z,23.40
2018-09-08T15:23:59.104Z,23.60
2018-09-08T15:26:32.476Z,23.70
2018-09-08T15:29:05.553Z,23.80
2018-09-08T15:31:38.366Z,24.00
2018-09-08T15:34:11.165Z,24.00
2018-09-08T15:36:44.100Z,24.00
2018-09-08T15:39:17.069Z,24.00
2018-09-08T15:41:49.654Z,24.00
2018-09-08T15:47:17.008Z,24.20
2018-09-08T15:49:50.439Z,24.40
2018-09-08T15:52:23.778Z,24.50
2018-09-08T15:54:56.877Z,24.40
2018-09-08T15:57:29.872Z,24.40
2018-09-08T16:00:02.666Z,24.40
2018-09-08T16:02:36.254Z,24.50
2018-09-08T16:05:09.197Z,24.50
2018-09-08T16:07:43.272Z,24.60
2018-09-08T16:10:16.664Z,24.60
2018-09-08T16:12:49.795Z,24.70
2018-09-08T16:15:22.902Z,24.90
2018-09-08T16:17:56.093Z,24.70
2018-09-08T16:21:57.847Z,24.70
2018-09-08T16:24:31.055Z,24.80
2018-09-08T16:27:04.286Z,24.80
2018-09-08T16:29:37.316Z,24.80
2018-09-08T16:32:10.328Z,25.00
2018-09-08T16:34:43.504Z,25.10
2018-09-08T16:37:16.749Z,25.20
2018-09-08T16:39:50.461Z,25.30
2018-09-08T16:42:23.717Z,25.30
2018-09-08T16:44:56.840Z,25.40
2018-09-08T16:47:30.556Z,25.50
2018-09-08T16:50:03.734Z,25.60
2018-09-08T16:52:37.048Z,25.70
2018-09-08T16:55:10.144Z,25.80
2018-09-08T16:57:43.769Z,25.90
2018-09-08T17:00:18.368Z,26.10
2018-09-08T17:02:51.960Z,26.10
2018-09-08T17:05:25.319Z,26.20
2018-09-08T17:07:58.843Z,26.30
2018-09-08T17:10:32.176Z,26.30
2018-09-08T17:13:05.167Z,26.40
2018-09-08T17:15:38.366Z,26.40
2018-09-08T17:18:11.397Z,26.40
2018-09-08T17:20:45.314Z,26.30
2018-09-08T17:23:18.441Z,26.30
2018-09-08T17:25:51.444Z,26.50
2018-09-08T17:28:24.939Z,26.60
2018-09-08T17:30:58.209Z,26.60
2018-09-08T17:33:31.599Z,26.40
2018-09-08T17:36:04.942Z,26.40
2018-09-08T17:38:38.453Z,26.40
2018-09-08T17:41:11.886Z,26.30
2018-09-08T17:43:45.541Z,26.20
2018-09-08T17:46:18.798Z,26.20
2018-09-08T17:48:52.086Z,26.40
2018-09-08T17:51:25.430Z,26.20
2018-09-08T17:53:58.575Z,26.30
2018-09-08T17:56:31.944Z,26.40
2018-09-08T17:59:05.319Z,26.50
2018-09-08T18:01:38.785Z,26.60
2018-09-08T18:04:12.037Z,26.70
2018-09-08T18:06:45.227Z,26.90
2018-09-08T18:09:18.659Z,26.90
2018-09-08T18:11:53.198Z,27.00
2018-09-08T18:14:26.633Z,27.20
2018-09-08T18:16:59.810Z,27.20
2018-09-08T18:19:32.850Z,27.30
2018-09-08T18:22:06.125Z,27.50
2018-09-08T18:24:39.099Z,27.80
2018-09-08T18:27:12.399Z,28.10
2018-09-08T18:29:45.506Z,28.30
2018-09-08T18:32:18.697Z,28.40
2018-09-08T18:34:51.457Z,28.50
2018-09-08T18:37:24.740Z,28.50
2018-09-08T18:39:57.852Z,28.50
2018-09-08T18:42:31.013Z,28.50
2018-09-08T18:45:04.320Z,28.40
2018-09-08T18:47:37.709Z,28.30
2018-09-08T18:50:11.379Z,27.90
2018-09-08T18:52:44.858Z,27.80
2018-09-08T18:55:18.025Z,27.70
2018-09-08T18:57:51.034Z,27.60
2018-09-08T19:00:24.349Z,27.60
2018-09-08T19:02:57.433Z,27.40
2018-09-08T19:05:30.345Z,27.20
2018-09-08T19:23:35.894Z,26.80
2018-09-08T19:26:09.174Z,25.10
2018-09-08T19:32:36.438Z,24.70
2018-09-08T19:35:14.244Z,24.30
2018-09-08T19:37:47.674Z,24.00
2018-09-08T19:40:25.776Z,23.70
2018-09-08T19:43:01.205Z,23.40
2018-09-08T19:45:36.643Z,23.20
2018-09-08T19:48:13.161Z,22.90
2018-09-08T19:50:46.932Z,22.70
2018-09-08T19:53:24.686Z,22.40
2018-09-08T19:55:58.145Z,22.00
2018-09-08T19:58:36.061Z,21.60
2018-09-08T20:01:09.924Z,21.60
2018-09-08T20:03:43.705Z,21.50
2018-09-08T20:06:17.570Z,21.50
2018-09-08T20:08:50.903Z,21.40
2018-09-08T20:11:24.550Z,21.40
2018-09-08T20:13:59.063Z,21.30
2018-09-08T20:18:01.028Z,21.30
2018-09-08T20:20:34.259Z,21.20
2018-09-08T20:23:07.584Z,21.40
2018-09-08T20:25:41.885Z,21.50
2018-09-08T20:28:15.162Z,21.50
2018-09-08T20:30:48.190Z,21.60
2018-09-08T20:33:21.670Z,21.60
2018-09-08T20:35:54.792Z,21.60
2018-09-08T20:38:27.809Z,21.60
2018-09-08T20:41:01.187Z,21.60
2018-09-08T20:43:34.382Z,21.50
2018-09-08T20:46:07.492Z,21.50
2018-09-08T20:48:40.901Z,21.50
2018-09-08T20:51:14.574Z,21.50
2018-09-08T20:53:48.127Z,21.60
2018-09-08T20:56:21.804Z,21.70
2018-09-08T20:58:56.014Z,21.80
2018-09-08T21:01:29.850Z,21.80
2018-09-08T21:04:03.190Z,21.80
2018-09-08T21:06:36.697Z,21.90
2018-09-08T21:09:10.459Z,22.00
2018-09-08T21:11:43.746Z,22.00
2018-09-08T21:14:17.086Z,22.00
2018-09-08T21:16:50.242Z,22.20
2018-09-08T21:19:23.652Z,22.20
2018-09-08T21:21:56.811Z,22.30
2018-09-08T21:24:29.776Z,22.40
2018-09-08T21:28:31.662Z,22.40
2018-09-08T21:31:04.716Z,22.40
2018-09-08T21:33:37.869Z,22.30
2018-09-08T21:36:10.757Z,22.20
2018-09-08T21:38:44.727Z,22.20
2018-09-08T21:41:18.315Z,22.10
2018-09-08T21:43:51.560Z,22.10
2018-09-08T21:46:24.377Z,22.10
2018-09-08T21:48:57.403Z,22.00
2018-09-08T21:51:30.458Z,22.10
2018-09-08T21:54:03.862Z,22.20
2018-09-08T21:56:36.900Z,22.20
2018-09-08T21:59:09.854Z,22.20
2018-09-08T22:01:44.107Z,22.20
2018-09-08T22:04:17.134Z,22.30
2018-09-08T22:06:50.272Z,22.30
2018-09-08T22:09:23.721Z,22.40
2018-09-08T22:11:56.670Z,22.40
2018-09-08T22:14:30.071Z,22.40
2018-09-08T22:17:03.253Z,22.50
2018-09-08T22:19:36.485Z,22.50
2018-09-08T22:22:09.738Z,22.50
2018-09-08T22:24:50.110Z,22.70
2018-09-08T22:30:18.255Z,22.90
2018-09-08T22:32:55.971Z,23.10
2018-09-08T22:35:29.471Z,23.20
2018-09-08T22:38:02.778Z,23.30
2018-09-08T22:40:37.009Z,23.40
2018-09-08T22:43:10.457Z,23.40
2018-09-08T22:45:43.479Z,23.40
2018-09-08T22:48:16.541Z,23.40
2018-09-08T22:50:50.763Z,23.50
2018-09-08T22:53:23.955Z,23.50
2018-09-08T22:55:56.952Z,23.60
2018-09-08T22:58:30.119Z,23.70
2018-09-08T23:01:02.951Z,23.80
2018-09-08T23:03:36.060Z,23.80
2018-09-08T23:06:09.066Z,23.80
2018-09-08T23:08:42.078Z,23.80
2018-09-08T23:11:14.946Z,23.70
2018-09-08T23:13:48.097Z,23.70
2018-09-08T23:16:22.007Z,23.70
2018-09-08T23:18:55.220Z,23.90
2018-09-08T23:21:28.121Z,23.90
2018-09-08T23:24:02.567Z,23.90
2018-09-08T23:26:35.574Z,23.90
2018-09-08T23:29:08.846Z,23.90
2018-09-08T23:31:47.760Z,23.90
2018-09-08T23:34:21.527Z,23.80
2018-09-08T23:36:55.761Z,23.70
2018-09-08T23:39:30.536Z,23.60
2018-09-08T23:42:03.878Z,23.60
2018-09-08T23:44:37.073Z,23.60
2018-09-08T23:47:10.310Z,23.50
2018-09-08T23:49:44.113Z,23.50
2018-09-08T23:52:17.352Z,23.50
2018-09-08T23:54:50.386Z,23.50
2018-09-08T23:57:23.614Z,23.50
2018-09-08T23:59:56.690Z,23.40
